createdAt,value
2022-10-19T00:02:37.072Z,92835.09
2022-10-19T00:05:22.850Z,92835.09
2022-10-19T00:08:08.595Z,92837.44
2022-10-19T00:10:54.415Z,92834.41
2022-10-19T00:13:40.336Z,92837.50
2022-10-19T00:16:26.174Z,92827.59
2022-10-19T00:19:11.948Z,92827.59
2022-10-19T00:21:57.734Z,92818.44
2022-10-19T00:24:43.605Z,92822.28
2022-10-19T00:27:29.390Z,92816.19
2022-10-19T00:30:15.240Z,92815.44
2022-10-19T00:33:01.125Z,92816.25
2022-10-19T00:35:46.856Z,92818.97
2022-10-19T00:38:32.752Z,92819.34
2022-10-19T00:41:18.674Z,92817.84
2022-10-19T00:44:04.544Z,92817.09
2022-10-19T00:46:50.399Z,92822.84
2022-10-19T00:49:36.182Z,92827.41
2022-10-19T00:52:22.095Z,92818.28
2022-10-19T00:55:07.797Z,92821.75
2022-10-19T00:57:53.608Z,92814.47
2022-10-19T01:00:39.409Z,92818.38
2022-10-19T01:03:25.250Z,92824.09
2022-10-19T01:06:11.031Z,92822.25
2022-10-19T01:08:56.972Z,92813.88
2022-10-19T01:11:42.861Z,92810.44
2022-10-19T01:14:28.809Z,92807.41
2022-10-19T01:17:14.706Z,92809.72
2022-10-19T01:20:00.585Z,92804.81
2022-10-19T01:22:46.757Z,92805.19
2022-10-19T01:25:32.592Z,92796.81
2022-10-19T01:28:18.492Z,92801.81
2022-10-19T01:31:04.445Z,92795.75
2022-10-19T01:33:50.289Z,92790.44
2022-10-19T01:36:36.349Z,92789.31
2022-10-19T01:39:22.263Z,92785.56
2022-10-19T01:42:08.173Z,92781.78
2022-10-19T01:44:54.213Z,92784.06
2022-10-19T01:47:40.100Z,92779.56
2022-10-19T01:50:25.902Z,92778.81
2022-10-19T01:53:11.744Z,92778.81
2022-10-19T01:55:57.655Z,92778.03
2022-10-19T01:58:45.509Z,92770.41
2022-10-19T02:01:31.431Z,92771.59
2022-10-19T02:04:17.277Z,92773.50
2022-10-19T02:07:03.118Z,92771.22
2022-10-19T02:09:48.899Z,92771.25
2022-10-19T02:12:34.998Z,92770.91
2022-10-19T02:15:21.465Z,92767.88
2022-10-19T02:18:07.491Z,92772.03
2022-10-19T02:20:53.271Z,92770.91
2022-10-19T02:23:39.248Z,92765.63
2022-10-19T02:26:25.042Z,92759.16
2022-10-19T02:29:10.920Z,92751.59
2022-10-19T02:31:56.794Z,92748.97
2022-10-19T02:34:42.625Z,92747.84
2022-10-19T02:37:28.452Z,92739.53
2022-10-19T02:40:14.220Z,92737.25
2022-10-19T02:43:00.077Z,92738.44
2022-10-19T02:45:48.160Z,92727.81
2022-10-19T02:48:36.047Z,92732.44
2022-10-19T02:51:21.935Z,92725.22
2022-10-19T02:54:07.835Z,92731.72
2022-10-19T02:56:53.615Z,92738.56
2022-10-19T02:59:39.387Z,92738.97
2022-10-19T03:02:25.310Z,92734.00
2022-10-19T03:05:11.103Z,92731.38
2022-10-19T03:07:57.087Z,92733.63
2022-10-19T03:10:42.799Z,92736.69
2022-10-19T03:13:28.766Z,92733.69
2022-10-19T03:16:14.681Z,92729.50
2022-10-19T03:19:00.655Z,92723.78
2022-10-19T03:21:46.401Z,92724.56
2022-10-19T03:24:32.302Z,92723.81
2022-10-19T03:27:18.169Z,92716.59
2022-10-19T03:30:04.016Z,92713.97
2022-10-19T03:32:49.771Z,92706.38
2022-10-19T03:35:35.652Z,92709.84
2022-10-19T03:38:21.547Z,92714.06
2022-10-19T03:41:07.231Z,92703.78
2022-10-19T03:43:53.127Z,92703.44
2022-10-19T03:46:38.985Z,92717.91
2022-10-19T03:49:24.856Z,92714.91
2022-10-19T03:52:10.882Z,92720.25
2022-10-19T03:54:56.623Z,92722.91
2022-10-19T03:57:42.443Z,92722.53
2022-10-19T04:00:28.269Z,92719.53
2022-10-19T04:03:14.112Z,92727.53
2022-10-19T04:06:00.068Z,92715.69
2022-10-19T04:08:45.788Z,92723.66
2022-10-19T04:11:31.629Z,92720.59
2022-10-19T04:14:45.767Z,92720.91
2022-10-19T04:17:45.638Z,92710.22
2022-10-19T04:20:34.008Z,92703.72
2022-10-19T04:23:19.799Z,92706.78
2022-10-19T04:26:05.720Z,92703.72
2022-10-19T04:28:51.604Z,92698.78
2022-10-19T04:31:37.677Z,92704.13
2022-10-19T04:34:23.526Z,92708.69
2022-10-19T04:37:09.353Z,92709.84
2022-10-19T04:39:55.241Z,92705.66
2022-10-19T04:42:41.175Z,92702.63
2022-10-19T04:45:26.908Z,92698.09
2022-10-19T04:48:15.027Z,92698.50
2022-10-19T04:51:01.288Z,92692.81
2022-10-19T04:53:46.912Z,92691.69
2022-10-19T04:56:32.856Z,92684.84
2022-10-19T04:59:20.696Z,92685.97
2022-10-19T05:02:06.621Z,92705.06
2022-10-19T05:04:52.559Z,92697.06
2022-10-19T05:07:38.478Z,92703.16
2022-10-19T05:10:24.357Z,92699.75
2022-10-19T05:13:10.484Z,92689.88
2022-10-19T05:15:56.226Z,92684.19
2022-10-19T05:18:42.167Z,92681.16
2022-10-19T05:21:27.946Z,92678.13
2022-10-19T05:24:13.672Z,92689.19
2022-10-19T05:26:59.543Z,92683.50
2022-10-19T05:29:45.325Z,92677.03
2022-10-19T05:32:31.227Z,92693.03
2022-10-19T05:35:22.358Z,92683.56
2022-10-19T05:38:08.643Z,92691.19
2022-10-19T05:40:54.343Z,92685.53
2022-10-19T05:43:40.237Z,92682.44
2022-10-19T05:46:26.008Z,92680.88
2022-10-19T05:49:11.831Z,92683.88
2022-10-19T05:51:57.703Z,92683.88
2022-10-19T05:54:43.455Z,92673.59
2022-10-19T05:57:29.407Z,92667.09
2022-10-19T06:00:15.304Z,92672.84
2022-10-19T06:03:01.200Z,92665.97
2022-10-19T06:05:47.039Z,92673.22
2022-10-19T06:08:32.724Z,92677.78
2022-10-19T06:11:18.681Z,92673.59
2022-10-19T06:14:04.401Z,92675.09
2022-10-19T06:16:50.169Z,92676.59
2022-10-19T06:19:35.953Z,92672.03
2022-10-19T06:22:21.646Z,92669.34
2022-10-19T06:25:07.537Z,92667.47
2022-10-19T06:27:53.379Z,92670.47
2022-10-19T06:30:39.382Z,92676.94
2022-10-19T06:33:25.185Z,92673.13
2022-10-19T06:36:11.031Z,92669.66
2022-10-19T06:38:56.888Z,92673.44
2022-10-19T06:41:42.925Z,92671.50
2022-10-19T06:44:28.629Z,92669.13
2022-10-19T06:47:14.570Z,92670.59
2022-10-19T06:50:00.407Z,92671.31
2022-10-19T06:52:46.085Z,92674.72
2022-10-19T06:55:31.830Z,92673.13
2022-10-19T06:58:17.731Z,92668.50
2022-10-19T07:01:03.764Z,92682.16
2022-10-19T07:03:50.113Z,92688.22
2022-10-19T07:06:35.832Z,92691.59
2022-10-19T07:09:21.760Z,92695.75
2022-10-19T07:12:07.612Z,92693.44
2022-10-19T07:14:53.487Z,92693.72
2022-10-19T07:17:39.455Z,92686.41
2022-10-19T07:20:25.213Z,92691.31
2022-10-19T07:23:11.226Z,92677.53
2022-10-19T07:25:57.062Z,92677.06
2022-10-19T07:28:44.853Z,92672.78
2022-10-19T07:31:30.766Z,92675.00
2022-10-19T07:34:16.606Z,92679.88
2022-10-19T07:37:02.525Z,92679.44
2022-10-19T07:39:48.368Z,92680.91
2022-10-19T07:42:34.286Z,92685.38
2022-10-19T07:45:20.317Z,92681.50
2022-10-19T07:48:06.248Z,92683.31
2022-10-19T07:50:52.044Z,92684.34
2022-10-19T07:53:38.201Z,92685.09
2022-10-19T07:56:24.151Z,92690.75
2022-10-19T07:59:10.003Z,92688.44
2022-10-19T08:01:55.973Z,92688.00
2022-10-19T08:05:00.280Z,92686.03
2022-10-19T08:07:47.821Z,92679.06
2022-10-19T08:10:33.737Z,92685.66
2022-10-19T08:13:19.664Z,92694.94
2022-10-19T08:16:05.562Z,92686.03
2022-10-19T08:18:51.547Z,92682.94
2022-10-19T08:21:37.427Z,92681.19
2022-10-19T08:24:23.545Z,92676.28
2022-10-19T08:27:09.567Z,92682.56
2022-10-19T08:29:55.384Z,92682.25
2022-10-19T08:32:41.247Z,92672.78
2022-10-19T08:35:27.183Z,92670.91
2022-10-19T08:38:13.001Z,92655.84
2022-10-19T08:40:58.949Z,92650.13
2022-10-19T08:43:44.746Z,92652.38
2022-10-19T08:46:30.725Z,92658.81
2022-10-19T08:49:16.675Z,92648.78
2022-10-19T08:52:02.434Z,92653.88
2022-10-19T08:54:48.185Z,92654.78
2022-10-19T08:57:34.201Z,92665.31
2022-10-19T09:00:20.457Z,92665.94
2022-10-19T09:03:06.438Z,92651.81
2022-10-19T09:05:52.163Z,92653.56
2022-10-19T09:08:38.051Z,92665.28
2022-10-19T09:11:24.006Z,92659.22
2022-10-19T09:14:09.807Z,92658.13
2022-10-19T09:16:55.730Z,92663.28
2022-10-19T09:19:41.658Z,92649.16
2022-10-19T09:22:27.439Z,92646.25
2022-10-19T09:25:13.435Z,92653.19
2022-10-19T09:27:59.315Z,92648.59
2022-10-19T09:30:45.250Z,92672.16
2022-10-19T09:33:31.106Z,92669.41
2022-10-19T09:36:22.636Z,92662.78
2022-10-19T09:39:13.797Z,92661.03
2022-10-19T09:41:59.718Z,92654.81
2022-10-19T09:44:47.629Z,92650.94
2022-10-19T09:47:33.903Z,92646.56
2022-10-19T09:50:22.000Z,92645.66
2022-10-19T09:53:07.923Z,92648.34
2022-10-19T09:55:53.859Z,92645.06
2022-10-19T09:58:39.878Z,92644.25
2022-10-19T10:01:29.615Z,92639.25
2022-10-19T10:04:19.438Z,92638.72
2022-10-19T10:07:05.203Z,92637.22
2022-10-19T10:09:51.190Z,92634.03
2022-10-19T10:12:37.238Z,92637.47
2022-10-19T10:15:23.010Z,92638.75
2022-10-19T10:18:08.776Z,92636.72
2022-10-19T10:20:54.713Z,92641.78
2022-10-19T10:23:40.690Z,92639.06
2022-10-19T10:26:26.925Z,92636.84
2022-10-19T10:29:12.900Z,92623.91
2022-10-19T10:31:58.839Z,92633.81
2022-10-19T10:34:51.820Z,92613.72
2022-10-19T10:37:38.901Z,92604.91
2022-10-19T10:40:26.812Z,92615.91
2022-10-19T10:43:12.657Z,92616.69
2022-10-19T10:45:58.633Z,92625.09
2022-10-19T10:48:44.493Z,92614.06
2022-10-19T10:51:30.333Z,92609.16
2022-10-19T10:54:16.431Z,92618.66
2022-10-19T10:57:05.600Z,92607.66
2022-10-19T10:59:52.779Z,92598.84
2022-10-19T11:02:38.653Z,92600.00
2022-10-19T11:05:26.347Z,92601.53
2022-10-19T11:08:12.303Z,92598.50
2022-10-19T11:10:58.416Z,92587.19
2022-10-19T11:13:44.270Z,92575.81
2022-10-19T11:16:30.126Z,92566.97
2022-10-19T11:19:16.530Z,92569.22
2022-10-19T11:22:02.392Z,92572.25
2022-10-19T11:24:48.773Z,92576.88
2022-10-19T11:27:35.243Z,92563.59
2022-10-19T11:30:21.279Z,92568.47
2022-10-19T11:33:07.326Z,92558.66
2022-10-19T11:35:55.246Z,92562.28
2022-10-19T11:38:41.068Z,92556.53
2022-10-19T11:41:26.998Z,92554.91
2022-10-19T11:44:14.935Z,92549.09
2022-10-19T11:47:00.874Z,92546.19
2022-10-19T11:49:46.829Z,92540.78
2022-10-19T11:52:33.042Z,92539.41
2022-10-19T11:55:19.172Z,92531.41
2022-10-19T11:58:05.091Z,92526.56
2022-10-19T12:00:50.842Z,92524.13
2022-10-19T12:03:36.621Z,92512.41
2022-10-19T12:06:22.569Z,92505.88
2022-10-19T12:09:08.425Z,92509.81
2022-10-19T12:11:54.443Z,92507.81
2022-10-19T12:14:40.231Z,92505.19
2022-10-19T12:17:26.208Z,92515.09
2022-10-19T12:20:14.886Z,92509.03
2022-10-19T12:23:03.422Z,92507.38
2022-10-19T12:25:49.187Z,92497.59
2022-10-19T12:28:35.116Z,92498.50
2022-10-19T12:31:20.964Z,92482.63
2022-10-19T12:34:06.758Z,92480.00
2022-10-19T12:36:52.705Z,92472.47
2022-10-19T12:39:38.493Z,92473.59
2022-10-19T12:42:24.367Z,92474.84
2022-10-19T12:45:10.212Z,92470.44
2022-10-19T12:47:58.099Z,92462.28
2022-10-19T12:50:43.938Z,92467.31
2022-10-19T12:53:29.826Z,92468.34
2022-10-19T12:56:15.679Z,92469.28
2022-10-19T12:59:01.782Z,92468.75
2022-10-19T13:01:47.813Z,92474.75
2022-10-19T13:04:33.964Z,92462.22
2022-10-19T13:07:20.284Z,92462.44
2022-10-19T13:10:06.048Z,92459.53
2022-10-19T13:12:52.044Z,92452.59
2022-10-19T13:15:37.953Z,92451.41
2022-10-19T13:18:23.873Z,92453.97
2022-10-19T13:21:10.135Z,92465.53
2022-10-19T13:23:56.237Z,92469.63
2022-10-19T13:26:42.325Z,92457.81
2022-10-19T13:29:28.312Z,92450.59
2022-10-19T13:32:14.195Z,92451.72
2022-10-19T13:35:00.197Z,92444.66
2022-10-19T13:37:46.071Z,92440.53
2022-10-19T13:40:32.007Z,92444.31
2022-10-19T13:43:17.883Z,92448.75
2022-10-19T13:46:03.621Z,92438.69
2022-10-19T13:48:49.539Z,92438.66
2022-10-19T13:51:35.489Z,92436.84
2022-10-19T13:54:21.461Z,92432.63
2022-10-19T13:57:07.440Z,92444.69
2022-10-19T13:59:53.349Z,92439.81
2022-10-19T14:02:39.184Z,92437.63
2022-10-19T14:05:25.114Z,92434.94
2022-10-19T14:08:10.966Z,92442.50
2022-10-19T14:11:00.996Z,92441.50
2022-10-19T14:13:47.548Z,92441.22
2022-10-19T14:16:33.237Z,92430.13
2022-10-19T14:19:19.062Z,92431.13
2022-10-19T14:22:05.008Z,92424.00
2022-10-19T14:24:50.831Z,92421.53
2022-10-19T14:27:36.948Z,92419.72
2022-10-19T14:30:23.230Z,92418.13
2022-10-19T14:33:08.884Z,92413.25
2022-10-19T14:35:54.671Z,92412.97
2022-10-19T14:38:40.538Z,92410.94
2022-10-19T14:41:26.522Z,92405.06
2022-10-19T14:44:12.468Z,92398.44
2022-10-19T14:46:58.330Z,92401.03
2022-10-19T14:49:44.241Z,92401.91
2022-10-19T14:52:30.224Z,92400.53
2022-10-19T14:55:17.857Z,92401.28
2022-10-19T14:58:03.983Z,92398.38
2022-10-19T15:00:49.869Z,92412.22
2022-10-19T15:03:38.110Z,92412.31
2022-10-19T15:06:27.397Z,92402.63
2022-10-19T15:09:24.489Z,92394.66
2022-10-19T15:12:19.312Z,92391.56
2022-10-19T15:15:05.186Z,92390.31
2022-10-19T15:17:51.073Z,92391.06
2022-10-19T15:20:44.245Z,92392.16
2022-10-19T15:23:35.086Z,92398.41
2022-10-19T15:26:22.901Z,92392.47
2022-10-19T15:29:08.665Z,92395.38
2022-10-19T15:31:54.735Z,92394.63
2022-10-19T15:34:40.483Z,92394.53
2022-10-19T15:40:17.440Z,92375.56
2022-10-19T15:43:03.335Z,92370.63
2022-10-19T15:45:49.125Z,92367.28
2022-10-19T15:48:35.055Z,92365.22
2022-10-19T15:51:21.886Z,92358.69
2022-10-19T15:54:07.763Z,92357.06
2022-10-19T15:56:53.735Z,92363.25
2022-10-19T15:59:39.797Z,92369.16
2022-10-19T16:02:25.652Z,92367.66
2022-10-19T16:05:11.700Z,92368.91
2022-10-19T16:07:57.860Z,92371.88
2022-10-19T16:10:43.651Z,92370.59
2022-10-19T16:13:29.485Z,92374.63
2022-10-19T16:16:15.290Z,92376.84
2022-10-19T16:19:01.149Z,92375.03
2022-10-19T16:21:50.249Z,92372.47
2022-10-19T16:24:36.504Z,92371.09
2022-10-19T16:27:22.375Z,92371.09
2022-10-19T16:30:08.276Z,92370.69
2022-10-19T16:32:54.217Z,92371.19
2022-10-19T16:35:40.077Z,92364.38
2022-10-19T16:38:25.898Z,92368.91
2022-10-19T16:41:11.739Z,92371.38
2022-10-19T16:43:57.642Z,92372.81
2022-10-19T16:46:43.439Z,92375.31
2022-10-19T16:49:29.497Z,92372.81
2022-10-19T16:52:15.309Z,92376.38
2022-10-19T16:55:01.225Z,92370.44
2022-10-19T16:57:47.138Z,92381.81
2022-10-19T17:00:33.165Z,92395.34
2022-10-19T17:03:18.855Z,92394.06
2022-10-19T17:06:04.560Z,92396.50
2022-10-19T17:09:23.603Z,92403.94
2022-10-19T17:11:56.545Z,92406.75
2022-10-19T17:14:42.462Z,92406.59
2022-10-19T17:17:28.301Z,92401.63
2022-10-19T17:20:14.449Z,92400.34
2022-10-19T17:23:00.361Z,92409.38
2022-10-19T17:25:48.107Z,92405.41
2022-10-19T17:28:34.001Z,92406.56
2022-10-19T17:31:19.919Z,92407.19
2022-10-19T17:34:05.881Z,92401.00
2022-10-19T17:36:51.768Z,92412.88
2022-10-19T17:39:37.609Z,92398.16
2022-10-19T17:42:25.469Z,92400.88
2022-10-19T17:45:11.484Z,92398.00
2022-10-19T17:47:57.297Z,92404.22
2022-10-19T17:50:43.230Z,92409.00
2022-10-19T17:53:29.251Z,92414.19
2022-10-19T17:56:15.098Z,92420.09
2022-10-19T17:59:01.090Z,92418.00
2022-10-19T18:01:46.925Z,92420.41
2022-10-19T18:04:33.132Z,92412.56
2022-10-19T18:07:19.109Z,92418.72
2022-10-19T18:10:06.952Z,92407.34
2022-10-19T18:12:52.965Z,92397.13
2022-10-19T18:15:38.879Z,92394.88
2022-10-19T18:18:24.786Z,92400.66
2022-10-19T18:21:10.741Z,92411.88
2022-10-19T18:23:56.793Z,92417.97
2022-10-19T18:26:42.739Z,92412.28
2022-10-19T18:29:28.580Z,92409.97
2022-10-19T18:32:14.372Z,92405.56
2022-10-19T18:35:00.270Z,92406.97
2022-10-19T18:37:46.149Z,92407.03
2022-10-19T18:40:32.035Z,92404.16
2022-10-19T18:43:17.877Z,92395.63
2022-10-19T18:46:03.703Z,92394.91
2022-10-19T18:48:49.518Z,92390.00
2022-10-19T18:51:35.446Z,92400.88
2022-10-19T18:54:21.254Z,92394.16
2022-10-19T18:57:07.203Z,92400.25
2022-10-19T18:59:55.169Z,92396.28
2022-10-19T19:02:46.771Z,92396.00
2022-10-19T19:05:33.124Z,92398.81
2022-10-19T19:08:18.971Z,92404.81
2022-10-19T19:11:04.863Z,92404.84
2022-10-19T19:13:50.790Z,92387.09
2022-10-19T19:16:36.741Z,92388.00
2022-10-19T19:19:22.530Z,92384.28
2022-10-19T19:22:08.841Z,92388.19
2022-10-19T19:24:54.951Z,92392.59
2022-10-19T19:27:40.802Z,92397.59
2022-10-19T19:30:26.809Z,92399.34
2022-10-19T19:33:14.659Z,92395.94
2022-10-19T19:36:00.548Z,92399.91
2022-10-19T19:38:46.460Z,92391.91
2022-10-19T19:41:32.259Z,92389.66
2022-10-19T19:44:18.162Z,92388.19
2022-10-19T19:47:04.137Z,92390.56
2022-10-19T19:49:49.999Z,92387.50
2022-10-19T19:52:40.243Z,92391.22
2022-10-19T19:55:26.506Z,92393.16
2022-10-19T19:58:12.476Z,92387.59
2022-10-19T20:00:58.286Z,92385.41
2022-10-19T20:03:44.192Z,92386.56
2022-10-19T20:06:29.981Z,92387.72
2022-10-19T20:09:15.856Z,92397.59
2022-10-19T20:12:01.735Z,92395.41
2022-10-19T20:14:47.766Z,92396.44
2022-10-19T20:17:33.834Z,92396.09
2022-10-19T20:20:19.904Z,92393.09
2022-10-19T20:23:05.738Z,92396.06
2022-10-19T20:25:51.663Z,92385.78
2022-10-19T20:28:37.480Z,92389.44
2022-10-19T20:31:23.287Z,92386.50
2022-10-19T20:34:09.332Z,92393.56
2022-10-19T20:36:55.174Z,92404.59
2022-10-19T20:39:41.115Z,92407.97
2022-10-19T20:42:26.922Z,92403.94
2022-10-19T20:45:12.808Z,92413.16
2022-10-19T20:47:58.703Z,92403.97
2022-10-19T20:50:44.659Z,92396.94
2022-10-19T20:53:30.478Z,92393.47
2022-10-19T20:56:16.401Z,92397.44
2022-10-19T21:01:49.218Z,92395.16
2022-10-19T21:04:35.165Z,92389.78
2022-10-19T21:07:21.182Z,92385.44
2022-10-19T21:10:06.991Z,92373.41
2022-10-19T21:12:52.871Z,92369.75
2022-10-19T21:15:38.653Z,92373.78
2022-10-19T21:18:24.583Z,92377.63
2022-10-19T21:21:10.440Z,92383.34
2022-10-19T21:23:56.399Z,92387.16
2022-10-19T21:26:42.161Z,92386.09
2022-10-19T21:29:28.009Z,92393.94
2022-10-19T21:32:13.978Z,92396.69
2022-10-19T21:34:59.811Z,92388.47
2022-10-19T21:37:45.772Z,92397.81
2022-10-19T21:40:31.573Z,92401.00
2022-10-19T21:43:17.295Z,92393.75
2022-10-19T21:46:03.141Z,92389.28
2022-10-19T21:48:48.975Z,92388.09
2022-10-19T21:51:34.799Z,92378.75
2022-10-19T21:54:20.628Z,92381.69
2022-10-19T21:57:06.575Z,92371.38
2022-10-19T21:59:52.538Z,92366.06
2022-10-19T22:02:38.358Z,92368.47
2022-10-19T22:05:24.171Z,92368.81
2022-10-19T22:08:12.014Z,92372.22
2022-10-19T22:10:57.804Z,92372.66
2022-10-19T22:13:43.794Z,92365.91
2022-10-19T22:16:29.594Z,92356.41
2022-10-19T22:19:15.355Z,92365.03
2022-10-19T22:22:01.295Z,92360.22
2022-10-19T22:24:47.011Z,92354.50
2022-10-19T22:27:32.895Z,92345.47
2022-10-19T22:30:18.965Z,92343.19
2022-10-19T22:33:04.782Z,92348.50
2022-10-19T22:35:50.637Z,92338.97
2022-10-19T22:38:36.472Z,92333.31
2022-10-19T22:41:22.414Z,92331.00
2022-10-19T22:44:08.470Z,92324.22
2022-10-19T22:46:54.259Z,92317.03
2022-10-19T22:49:40.167Z,92318.88
2022-10-19T22:52:26.025Z,92315.88
2022-10-19T22:55:11.829Z,92311.63
2022-10-19T22:57:57.791Z,92317.94
2022-10-19T23:00:43.783Z,92302.50
2022-10-19T23:03:31.565Z,92309.59
2022-10-19T23:06:17.510Z,92312.59
2022-10-19T23:09:03.419Z,92311.53
2022-10-19T23:11:49.283Z,92310.09
2022-10-19T23:14:35.197Z,92309.09
2022-10-19T23:17:23.035Z,92311.13
2022-10-19T23:20:08.920Z,92303.72
2022-10-19T23:22:54.880Z,92302.94
2022-10-19T23:25:40.570Z,92298.22
2022-10-19T23:28:26.468Z,92300.22
2022-10-19T23:31:12.241Z,92292.81
2022-10-19T23:33:58.191Z,92287.59
2022-10-19T23:36:44.100Z,92278.31
2022-10-19T23:39:29.836Z,92285.25
2022-10-19T23:42:16.888Z,92292.59
2022-10-19T23:45:03.069Z,92295.88
2022-10-19T23:47:48.819Z,92285.66
2022-10-19T23:50:34.793Z,92291.34
2022-10-19T23:53:21.726Z,92284.88
2022-10-19T23:56:07.492Z,92286.78
2022-10-19T23:58:53.331Z,92290.59
